createdAt,value
2022-08-17T00:00:34.612Z,22.50
2022-08-17T00:03:10.410Z,22.50
2022-08-17T00:05:45.961Z,22.50
2022-08-17T00:08:18.202Z,22.30
2022-08-17T00:10:47.663Z,22.30
2022-08-17T00:13:36.917Z,22.40
2022-08-17T00:16:09.007Z,22.50
2022-08-17T00:19:02.140Z,22.50
2022-08-17T00:21:25.238Z,22.30
2022-08-17T00:23:53.551Z,22.20
2022-08-17T00:26:43.999Z,22.30
2022-08-17T00:29:20.117Z,22.20
2022-08-17T00:31:48.014Z,22.20
2022-08-17T00:34:15.397Z,22.20
2022-08-17T00:36:42.743Z,22.20
2022-08-17T00:39:10.061Z,22.10
2022-08-17T00:41:42.432Z,22.10
2022-08-17T00:44:12.374Z,22.00
2022-08-17T00:46:42.584Z,22.00
2022-08-17T00:49:12.479Z,21.70
2022-08-17T00:52:11.650Z,21.60
2022-08-17T00:54:43.617Z,21.70
2022-08-17T00:57:20.407Z,21.90
2022-08-17T01:00:02.330Z,21.90
2022-08-17T01:02:42.553Z,21.90
2022-08-17T01:05:18.644Z,21.40
2022-08-17T01:07:51.103Z,21.30
2022-08-17T01:11:00.679Z,21.40
2022-08-17T01:13:11.563Z,21.50
2022-08-17T01:15:46.180Z,21.70
2022-08-17T01:18:14.994Z,21.80
2022-08-17T01:20:48.304Z,21.50
2022-08-17T01:23:21.009Z,21.30
2022-08-17T01:25:57.177Z,21.50
2022-08-17T01:28:52.556Z,21.50
2022-08-17T01:31:17.379Z,21.50
2022-08-17T01:33:44.734Z,21.70
2022-08-17T01:36:12.272Z,21.70
2022-08-17T01:38:40.392Z,21.90
2022-08-17T01:41:12.582Z,21.70
2022-08-17T01:43:56.926Z,21.60
2022-08-17T01:46:27.339Z,21.70
2022-08-17T01:48:57.971Z,21.70
2022-08-17T01:51:32.852Z,21.80
2022-08-17T01:54:09.729Z,21.90
2022-08-17T01:56:41.150Z,21.90
2022-08-17T01:59:09.320Z,21.50
2022-08-17T02:01:38.135Z,21.40
2022-08-17T02:04:08.536Z,21.10
2022-08-17T02:06:52.632Z,21.20
2022-08-17T02:09:26.327Z,21.40
2022-08-17T02:12:37.140Z,21.20
2022-08-17T02:14:50.535Z,21.10
2022-08-17T02:17:20.090Z,21.20
2022-08-17T02:19:49.175Z,21.30
2022-08-17T02:22:18.425Z,21.40
2022-08-17T02:25:01.114Z,21.50
2022-08-17T02:27:30.625Z,21.60
2022-08-17T02:29:58.310Z,21.70
2022-08-17T02:32:27.910Z,21.80
2022-08-17T02:34:57.506Z,21.90
2022-08-17T02:37:26.831Z,21.80
2022-08-17T02:39:54.913Z,21.70
2022-08-17T02:42:34.186Z,21.70
2022-08-17T02:45:04.110Z,21.40
2022-08-17T02:47:32.000Z,21.40
2022-08-17T02:49:59.677Z,21.40
2022-08-17T02:52:43.721Z,21.40
2022-08-17T02:55:19.117Z,21.50
2022-08-17T02:57:47.155Z,21.50
2022-08-17T03:00:22.621Z,21.50
2022-08-17T03:02:51.539Z,21.50
2022-08-17T03:05:22.696Z,21.40
2022-08-17T03:07:50.251Z,21.40
2022-08-17T03:10:18.566Z,21.50
2022-08-17T03:13:07.358Z,21.50
2022-08-17T03:15:35.783Z,21.50
2022-08-17T03:18:08.149Z,21.50
2022-08-17T03:20:47.277Z,21.50
2022-08-17T03:23:14.560Z,21.50
2022-08-17T03:25:46.107Z,21.50
2022-08-17T03:28:13.956Z,21.40
2022-08-17T03:30:42.024Z,21.30
2022-08-17T03:33:12.672Z,21.40
2022-08-17T03:35:41.060Z,21.50
2022-08-17T03:38:10.830Z,21.50
2022-08-17T03:40:56.729Z,21.50
2022-08-17T03:43:26.599Z,21.40
2022-08-17T03:46:28.810Z,21.40
2022-08-17T03:49:29.596Z,21.50
2022-08-17T03:52:16.316Z,21.40
2022-08-17T03:55:05.412Z,21.30
2022-08-17T03:57:33.378Z,21.30
2022-08-17T04:00:00.695Z,21.30
2022-08-17T04:02:31.341Z,21.40
2022-08-17T04:04:59.565Z,21.40
2022-08-17T04:07:29.972Z,21.40
2022-08-17T04:09:58.259Z,21.40
2022-08-17T04:12:26.871Z,21.40
2022-08-17T04:14:55.156Z,21.50
2022-08-17T04:17:25.716Z,21.00
2022-08-17T04:19:53.678Z,20.60
2022-08-17T04:22:30.647Z,20.60
2022-08-17T04:25:10.215Z,20.80
2022-08-17T04:27:37.629Z,21.00
2022-08-17T04:30:07.577Z,21.00
2022-08-17T04:33:04.320Z,21.10
2022-08-17T04:35:36.243Z,21.20
2022-08-17T04:38:03.842Z,21.30
2022-08-17T04:40:50.262Z,21.30
2022-08-17T04:43:21.717Z,21.40
2022-08-17T04:46:09.933Z,21.40
2022-08-17T04:48:46.607Z,21.40
2022-08-17T04:51:19.378Z,21.40
2022-08-17T04:53:54.894Z,21.50
2022-08-17T04:56:25.296Z,21.60
2022-08-17T04:58:55.003Z,21.60
2022-08-17T05:01:24.733Z,21.60
2022-08-17T05:03:54.582Z,21.60
2022-08-17T05:06:23.075Z,21.70
2022-08-17T05:08:50.912Z,21.70
2022-08-17T05:11:19.474Z,21.70
2022-08-17T05:13:50.567Z,21.50
2022-08-17T05:16:19.586Z,21.30
2022-08-17T05:18:48.182Z,21.40
2022-08-17T05:21:17.196Z,21.50
2022-08-17T05:23:47.191Z,21.70
2022-08-17T05:26:26.673Z,21.90
2022-08-17T05:29:00.312Z,22.10
2022-08-17T05:31:29.751Z,22.10
2022-08-17T05:33:57.817Z,22.20
2022-08-17T05:36:42.300Z,22.30
2022-08-17T05:39:23.337Z,22.50
2022-08-17T05:42:11.208Z,22.50
2022-08-17T05:48:36.890Z,22.70
2022-08-17T05:55:42.887Z,23.20
2022-08-17T05:59:11.628Z,23.30
2022-08-17T06:02:47.691Z,23.30
2022-08-17T06:06:31.111Z,23.30
2022-08-17T06:09:26.536Z,23.40
2022-08-17T06:12:19.887Z,23.40
2022-08-17T06:15:09.642Z,23.40
2022-08-17T06:17:38.364Z,23.40
2022-08-17T06:20:12.093Z,23.40
2022-08-17T06:22:52.290Z,23.50
2022-08-17T06:25:26.342Z,23.60
2022-08-17T06:27:58.891Z,23.60
2022-08-17T06:30:41.354Z,23.90
2022-08-17T06:33:32.419Z,24.00
2022-08-17T06:36:30.306Z,24.20
2022-08-17T06:39:28.513Z,24.20
2022-08-17T06:41:56.073Z,24.30
2022-08-17T06:44:50.262Z,24.20
2022-08-17T06:47:29.331Z,24.40
2022-08-17T06:50:08.035Z,24.50
2022-08-17T06:52:47.372Z,24.60
2022-08-17T06:55:38.135Z,24.70
2022-08-17T06:58:15.610Z,24.70
2022-08-17T07:00:47.437Z,24.80
2022-08-17T07:03:33.621Z,24.70
2022-08-17T07:06:17.353Z,24.60
2022-08-17T07:08:56.847Z,24.60
2022-08-17T07:11:50.771Z,24.40
2022-08-17T07:14:53.459Z,24.40
2022-08-17T07:17:47.409Z,24.50
2022-08-17T07:20:15.248Z,24.80
2022-08-17T07:22:50.354Z,25.00
2022-08-17T07:25:28.747Z,25.20
2022-08-17T07:27:59.940Z,25.40
2022-08-17T07:30:45.600Z,25.60
2022-08-17T07:33:28.460Z,25.60
2022-08-17T07:35:58.279Z,25.40
2022-08-17T07:38:32.096Z,25.30
2022-08-17T07:41:07.899Z,25.20
2022-08-17T07:43:41.432Z,25.20
2022-08-17T07:46:33.677Z,25.30
2022-08-17T07:49:03.816Z,25.60
2022-08-17T07:51:33.577Z,25.80
2022-08-17T07:54:23.539Z,26.00
2022-08-17T07:56:53.855Z,26.00
2022-08-17T07:59:34.233Z,26.00
2022-08-17T08:02:15.930Z,25.80
2022-08-17T08:05:01.142Z,25.80
2022-08-17T08:07:38.395Z,26.10
2022-08-17T08:10:25.346Z,26.40
2022-08-17T08:13:14.088Z,26.40
2022-08-17T08:15:53.630Z,26.50
2022-08-17T08:18:53.455Z,26.50
2022-08-17T08:21:37.003Z,26.60
2022-08-17T08:24:07.290Z,26.80
2022-08-17T08:26:58.466Z,26.90
2022-08-17T08:30:16.918Z,27.10
2022-08-17T08:33:22.305Z,27.40
2022-08-17T08:35:50.085Z,27.50
2022-08-17T08:38:32.585Z,27.40
2022-08-17T08:41:06.005Z,27.40
2022-08-17T08:44:11.513Z,27.60
2022-08-17T08:47:14.577Z,27.90
2022-08-17T08:50:04.423Z,27.80
2022-08-17T08:52:59.937Z,27.70
2022-08-17T08:55:48.758Z,27.80
2022-08-17T08:58:41.798Z,28.10
2022-08-17T09:01:54.287Z,28.20
2022-08-17T09:04:25.866Z,27.80
2022-08-17T09:07:08.462Z,28.00
2022-08-17T09:10:25.504Z,28.30
2022-08-17T09:13:20.138Z,28.60
2022-08-17T09:15:57.459Z,28.90
2022-08-17T09:19:01.660Z,29.20
2022-08-17T09:21:38.397Z,29.30
2022-08-17T09:24:37.413Z,29.20
2022-08-17T09:27:14.607Z,29.30
2022-08-17T09:29:49.163Z,29.20
2022-08-17T09:32:44.233Z,29.20
2022-08-17T09:35:20.363Z,29.30
2022-08-17T09:38:21.565Z,29.40
2022-08-17T09:40:52.678Z,29.40
2022-08-17T09:43:20.546Z,29.30
2022-08-17T09:45:58.811Z,29.40
2022-08-17T09:48:35.937Z,29.50
2022-08-17T09:51:21.715Z,29.70
2022-08-17T09:53:50.605Z,29.70
2022-08-17T09:56:32.709Z,30.00
2022-08-17T10:03:59.613Z,30.40
2022-08-17T10:06:49.409Z,30.60
2022-08-17T10:09:20.750Z,30.70
2022-08-17T10:12:20.687Z,30.90
2022-08-17T10:15:19.110Z,31.00
2022-08-17T10:18:08.988Z,31.10
2022-08-17T10:20:45.619Z,31.20
2022-08-17T10:23:40.319Z,31.30
2022-08-17T10:26:25.448Z,31.30
2022-08-17T10:29:06.925Z,31.00
2022-08-17T10:31:42.640Z,31.10
2022-08-17T10:34:41.600Z,31.40
2022-08-17T10:38:11.941Z,31.70
2022-08-17T10:41:00.233Z,32.00
2022-08-17T10:44:37.158Z,32.20
2022-08-17T10:46:47.056Z,32.00
2022-08-17T10:49:17.560Z,32.00
2022-08-17T10:51:55.998Z,32.20
2022-08-17T10:54:26.084Z,32.40
2022-08-17T10:56:56.147Z,32.60
2022-08-17T10:59:35.593Z,32.60
2022-08-17T11:02:31.026Z,32.50
2022-08-17T11:05:01.261Z,32.70
2022-08-17T11:07:44.003Z,32.60
2022-08-17T11:10:20.896Z,32.50
2022-08-17T11:13:31.340Z,32.50
2022-08-17T11:16:26.587Z,32.90
2022-08-17T11:19:31.295Z,32.50
2022-08-17T11:22:13.650Z,32.00
2022-08-17T11:24:48.139Z,31.60
2022-08-17T11:27:30.167Z,31.60
2022-08-17T11:30:05.321Z,31.70
2022-08-17T11:32:55.205Z,31.80
2022-08-17T11:35:24.003Z,31.70
2022-08-17T11:38:25.913Z,31.40
2022-08-17T11:41:32.446Z,31.70
2022-08-17T11:44:24.340Z,32.20
2022-08-17T11:51:39.283Z,32.50
2022-08-17T11:54:34.794Z,31.80
2022-08-17T11:57:26.865Z,31.70
2022-08-17T11:59:55.567Z,31.80
2022-08-17T12:05:25.675Z,31.80
2022-08-17T12:08:04.485Z,32.10
2022-08-17T12:10:38.698Z,32.10
2022-08-17T12:13:16.569Z,31.90
2022-08-17T12:16:04.246Z,32.00
2022-08-17T12:18:37.552Z,32.20
2022-08-17T12:21:17.853Z,32.20
2022-08-17T12:24:02.140Z,32.20
2022-08-17T12:26:32.798Z,32.20
2022-08-17T12:29:04.204Z,32.50
2022-08-17T12:31:47.936Z,32.50
2022-08-17T12:34:21.025Z,32.50
2022-08-17T12:36:52.405Z,32.50
2022-08-17T12:39:24.994Z,33.00
2022-08-17T12:42:02.001Z,32.80
2022-08-17T12:44:50.310Z,33.00
2022-08-17T12:47:22.742Z,33.40
2022-08-17T12:49:54.829Z,33.80
2022-08-17T12:52:32.929Z,34.10
2022-08-17T12:55:21.434Z,34.10
2022-08-17T12:57:51.600Z,34.10
2022-08-17T13:00:41.315Z,33.60
2022-08-17T13:03:24.120Z,33.10
2022-08-17T13:05:59.120Z,33.10
2022-08-17T13:08:41.256Z,33.30
2022-08-17T13:11:19.410Z,33.90
2022-08-17T13:13:53.107Z,34.20
2022-08-17T13:16:31.049Z,34.50
2022-08-17T13:19:16.263Z,34.60
2022-08-17T13:22:08.310Z,34.40
2022-08-17T13:24:37.943Z,34.30
2022-08-17T13:27:10.044Z,34.20
2022-08-17T13:29:52.867Z,34.40
2022-08-17T13:32:31.296Z,35.00
2022-08-17T13:35:14.123Z,35.10
2022-08-17T13:38:01.598Z,35.20
2022-08-17T13:40:41.807Z,35.40
2022-08-17T13:43:10.304Z,35.30
2022-08-17T13:45:50.799Z,35.20
2022-08-17T13:48:19.226Z,35.10
2022-08-17T13:51:02.264Z,35.30
2022-08-17T13:53:37.743Z,35.60
2022-08-17T13:56:37.020Z,35.70
2022-08-17T13:59:01.463Z,35.80
2022-08-17T14:01:36.249Z,35.60
2022-08-17T14:04:11.431Z,35.30
2022-08-17T14:07:21.745Z,35.10
2022-08-17T14:09:53.517Z,35.00
2022-08-17T14:12:26.288Z,34.20
2022-08-17T14:14:56.647Z,33.80
2022-08-17T14:17:25.209Z,33.60
2022-08-17T14:19:53.921Z,33.30
2022-08-17T14:22:33.774Z,33.00
2022-08-17T14:25:02.380Z,32.60
2022-08-17T14:27:33.726Z,32.50
2022-08-17T14:30:10.591Z,32.40
2022-08-17T14:32:41.473Z,32.40
2022-08-17T14:35:11.009Z,32.20
2022-08-17T14:37:38.755Z,32.20
2022-08-17T14:40:10.943Z,32.20
2022-08-17T14:42:40.968Z,32.20
2022-08-17T14:45:31.724Z,32.00
2022-08-17T14:47:58.102Z,32.10
2022-08-17T14:50:25.526Z,32.40
2022-08-17T14:52:55.332Z,32.20
2022-08-17T14:55:23.087Z,32.20
2022-08-17T14:57:50.622Z,32.20
2022-08-17T15:00:22.456Z,32.20
2022-08-17T15:02:56.746Z,32.00
2022-08-17T15:05:27.584Z,31.80
2022-08-17T15:07:55.931Z,31.70
2022-08-17T15:10:25.909Z,31.70
2022-08-17T15:12:54.657Z,31.60
2022-08-17T15:15:22.131Z,31.50
2022-08-17T15:17:51.322Z,31.40
2022-08-17T15:20:21.715Z,31.30
2022-08-17T15:22:56.278Z,31.20
2022-08-17T15:25:25.916Z,31.20
2022-08-17T15:27:56.149Z,31.10
2022-08-17T15:30:24.673Z,31.10
2022-08-17T15:32:54.995Z,31.10
2022-08-17T15:35:29.050Z,31.20
2022-08-17T15:38:09.856Z,31.00
2022-08-17T15:40:42.153Z,30.90
2022-08-17T15:43:12.235Z,30.80
2022-08-17T15:45:40.728Z,30.80
2022-08-17T15:48:09.117Z,30.90
2022-08-17T15:50:37.305Z,30.90
2022-08-17T15:53:05.105Z,30.80
2022-08-17T15:55:33.918Z,30.60
2022-08-17T15:58:01.702Z,30.70
2022-08-17T16:00:29.612Z,30.60
2022-08-17T16:03:46.978Z,30.50
2022-08-17T16:05:48.368Z,30.50
2022-08-17T16:08:20.722Z,30.50
2022-08-17T16:10:50.299Z,30.60
2022-08-17T16:13:19.607Z,30.50
2022-08-17T16:15:56.546Z,30.50
2022-08-17T16:18:31.089Z,30.60
2022-08-17T16:21:24.409Z,30.50
2022-08-17T16:23:56.471Z,30.50
2022-08-17T16:26:24.600Z,30.50
2022-08-17T16:28:52.064Z,30.60
2022-08-17T16:31:19.847Z,30.60
2022-08-17T16:34:15.574Z,30.70
2022-08-17T16:36:37.572Z,30.60
2022-08-17T16:39:05.016Z,30.50
2022-08-17T16:41:48.524Z,30.70
2022-08-17T16:44:19.144Z,30.80
2022-08-17T16:46:48.533Z,30.90
2022-08-17T16:49:24.438Z,31.10
2022-08-17T16:52:11.821Z,31.20
2022-08-17T16:54:43.900Z,31.40
2022-08-17T16:57:18.644Z,31.60
2022-08-17T16:59:51.720Z,31.60
2022-08-17T17:02:32.598Z,31.60
2022-08-17T17:05:22.320Z,31.40
2022-08-17T17:08:00.981Z,31.40
2022-08-17T17:10:41.008Z,31.10
2022-08-17T17:13:17.281Z,30.80
2022-08-17T17:16:03.567Z,30.80
2022-08-17T17:18:43.723Z,30.80
2022-08-17T17:21:17.218Z,30.60
2022-08-17T17:24:00.598Z,30.50
2022-08-17T17:26:51.117Z,30.50
2022-08-17T17:29:47.702Z,30.40
2022-08-17T17:32:41.024Z,30.30
2022-08-17T17:35:23.146Z,30.30
2022-08-17T17:37:53.043Z,30.10
2022-08-17T17:40:48.077Z,29.50
2022-08-17T17:43:38.414Z,28.90
2022-08-17T17:46:29.932Z,28.70
2022-08-17T17:48:58.103Z,28.70
2022-08-17T17:51:55.054Z,28.90
2022-08-17T17:54:47.145Z,28.90
2022-08-17T17:57:21.783Z,28.90
2022-08-17T18:00:00.249Z,28.90
2022-08-17T18:02:53.195Z,28.80
2022-08-17T18:05:48.965Z,28.70
2022-08-17T18:08:44.849Z,28.30
2022-08-17T18:11:42.387Z,28.10
2022-08-17T18:14:27.659Z,28.00
2022-08-17T18:17:00.742Z,28.00
2022-08-17T18:19:30.698Z,27.90
2022-08-17T18:22:14.216Z,27.90
2022-08-17T18:24:45.755Z,27.90
2022-08-17T18:27:36.931Z,28.00
2022-08-17T18:30:29.036Z,28.10
2022-08-17T18:33:22.301Z,27.90
2022-08-17T18:35:59.352Z,27.70
2022-08-17T18:38:33.993Z,27.60
2022-08-17T18:41:20.065Z,27.40
2022-08-17T18:44:16.376Z,27.50
2022-08-17T18:46:44.230Z,27.10
2022-08-17T18:49:28.470Z,27.00
2022-08-17T18:52:09.285Z,27.00
2022-08-17T18:54:37.479Z,27.00
2022-08-17T18:57:06.785Z,26.80
2022-08-17T18:59:48.838Z,26.80
2022-08-17T19:02:36.031Z,26.90
2022-08-17T19:05:25.039Z,26.90
2022-08-17T19:07:52.580Z,26.70
2022-08-17T19:10:46.454Z,26.60
2022-08-17T19:13:44.894Z,26.70
2022-08-17T19:16:55.339Z,26.60
2022-08-17T19:19:30.190Z,26.00
2022-08-17T19:22:28.490Z,26.10
2022-08-17T19:25:09.386Z,26.20
2022-08-17T19:27:46.597Z,26.20
2022-08-17T19:30:17.855Z,26.30
2022-08-17T19:32:45.225Z,26.40
2022-08-17T19:35:17.495Z,26.20
2022-08-17T19:38:22.156Z,26.00
2022-08-17T19:41:05.528Z,25.60
2022-08-17T19:43:51.940Z,25.60
2022-08-17T19:46:50.650Z,25.60
2022-08-17T19:49:41.487Z,25.70
2022-08-17T19:52:27.265Z,25.80
2022-08-17T19:55:16.952Z,25.80
2022-08-17T19:58:17.790Z,26.00
2022-08-17T20:00:51.584Z,26.10
2022-08-17T20:03:48.995Z,26.30
2022-08-17T20:06:16.812Z,26.10
2022-08-17T20:08:59.181Z,26.00
2022-08-17T20:11:53.277Z,26.00
2022-08-17T20:14:55.288Z,26.00
2022-08-17T20:17:29.664Z,26.00
2022-08-17T20:20:24.036Z,26.00
2022-08-17T20:23:05.746Z,26.00
2022-08-17T20:25:50.057Z,25.90
2022-08-17T20:28:35.331Z,25.60
2022-08-17T20:31:25.453Z,25.40
2022-08-17T20:33:55.568Z,25.40
2022-08-17T20:36:24.964Z,25.50
2022-08-17T20:38:56.071Z,25.50
2022-08-17T20:41:26.893Z,25.40
2022-08-17T20:43:57.990Z,25.20
2022-08-17T20:46:37.637Z,25.30
2022-08-17T20:49:25.333Z,25.40
2022-08-17T20:52:07.869Z,25.50
2022-08-17T20:54:50.748Z,25.60
2022-08-17T20:57:33.520Z,25.50
2022-08-17T21:00:28.930Z,25.10
2022-08-17T21:03:24.341Z,25.00
2022-08-17T21:06:17.054Z,25.00
2022-08-17T21:09:19.178Z,25.20
2022-08-17T21:12:03.733Z,25.40
2022-08-17T21:15:01.029Z,25.30
2022-08-17T21:17:31.392Z,25.30
2022-08-17T21:20:32.340Z,25.30
2022-08-17T21:23:30.583Z,25.20
2022-08-17T21:26:06.781Z,25.20
2022-08-17T21:29:30.246Z,25.30
2022-08-17T21:32:15.884Z,25.30
2022-08-17T21:35:11.333Z,25.20
2022-08-17T21:37:45.014Z,25.20
2022-08-17T21:40:19.249Z,25.20
2022-08-17T21:42:54.045Z,25.10
2022-08-17T21:45:29.969Z,25.10
2022-08-17T21:48:15.642Z,25.20
2022-08-17T21:51:10.600Z,25.20
2022-08-17T21:53:50.839Z,25.00
2022-08-17T21:56:30.810Z,24.80
2022-08-17T21:59:05.738Z,25.00
2022-08-17T22:01:40.925Z,25.10
2022-08-17T22:04:13.120Z,25.00
2022-08-17T22:06:42.112Z,24.90
2022-08-17T22:09:32.593Z,24.60
2022-08-17T22:12:15.764Z,24.60
2022-08-17T22:15:06.744Z,24.70
2022-08-17T22:17:40.367Z,24.80
2022-08-17T22:20:14.836Z,24.50
2022-08-17T22:23:20.596Z,24.50
2022-08-17T22:26:12.790Z,24.10
2022-08-17T22:28:50.804Z,24.20
2022-08-17T22:31:27.956Z,24.30
2022-08-17T22:34:04.118Z,24.50
2022-08-17T22:36:35.955Z,24.60
2022-08-17T22:39:09.365Z,24.60
2022-08-17T22:41:56.321Z,24.70
2022-08-17T22:44:37.756Z,24.70
2022-08-17T22:47:24.278Z,24.60
2022-08-17T22:49:58.354Z,24.50
2022-08-17T22:52:32.393Z,24.30
2022-08-17T22:55:35.230Z,23.80
2022-08-17T22:58:27.974Z,23.60
2022-08-17T23:00:55.977Z,23.70
2022-08-17T23:03:26.441Z,23.80
2022-08-17T23:06:11.389Z,23.80
2022-08-17T23:08:50.057Z,24.00
2022-08-17T23:11:17.409Z,24.20
2022-08-17T23:13:46.132Z,24.00
2022-08-17T23:16:15.300Z,24.00
2022-08-17T23:18:46.823Z,24.20
2022-08-17T23:21:24.126Z,24.00
2022-08-17T23:23:54.743Z,24.10
2022-08-17T23:26:23.143Z,24.10
2022-08-17T23:28:50.519Z,24.10
2022-08-17T23:31:20.568Z,24.20
2022-08-17T23:33:54.604Z,24.20
2022-08-17T23:36:23.773Z,23.90
2022-08-17T23:38:51.103Z,23.60
2022-08-17T23:41:20.909Z,23.40
2022-08-17T23:43:52.339Z,23.30
2022-08-17T23:46:23.174Z,23.30
2022-08-17T23:48:54.150Z,23.40
2022-08-17T23:51:28.644Z,23.50
2022-08-17T23:54:07.195Z,23.60
2022-08-17T23:56:45.535Z,23.80
2022-08-17T23:59:16.830Z,23.90
